Time;durP1;ratioP1;P1;durP2;ratioP2;P2;SDS_P1;SDS_P2;PMS_P1;PMS_P2;Temp;Humidity;BMP_temperature;BMP_pressure;BME280_temperature;BME280_humidity;BME280_pressure;Samples;Min_cycle;Max_cycle;Signal;HPM_P1;HPM_P2
2022/07/25 00:01:50;;;;;;;7.53;2.38;;;23.60;98.20;;;;;;5034569;28;213684;-67
2022/07/25 00:04:17;;;;;;;7.93;2.30;;;23.60;98.20;;;;;;5041872;28;144594;-67
2022/07/25 00:06:43;;;;;;;7.00;2.55;;;23.60;98.30;;;;;;5045810;28;213092;-67
2022/07/25 00:09:09;;;;;;;7.60;2.35;;;23.60;98.40;;;;;;5051203;28;260981;-67
2022/07/25 00:11:36;;;;;;;7.75;2.72;;;23.60;98.30;;;;;;5026152;28;205602;-68
2022/07/25 00:14:02;;;;;;;8.18;2.50;;;23.60;98.30;;;;;;5053855;28;173368;-67
2022/07/25 00:16:29;;;;;;;7.40;2.65;;;23.60;98.40;;;;;;5035946;28;209662;-68
2022/07/25 00:18:55;;;;;;;8.93;2.60;;;23.50;98.40;;;;;;5062104;28;250393;-67
2022/07/25 00:21:21;;;;;;;6.90;2.67;;;23.50;98.40;;;;;;5032570;28;213739;-67
2022/07/25 00:23:47;;;;;;;7.53;2.53;;;23.50;98.40;;;;;;5061326;28;275484;-67
2022/07/25 00:26:13;;;;;;;7.80;2.60;;;23.50;98.40;;;;;;5039730;28;209310;-67
2022/07/25 00:28:39;;;;;;;7.20;2.78;;;23.50;98.50;;;;;;5061721;28;263129;-67
2022/07/25 00:31:06;;;;;;;7.82;2.83;;;23.40;98.60;;;;;;5042591;28;212486;-66
2022/07/25 00:33:32;;;;;;;6.93;2.78;;;23.30;98.50;;;;;;5062213;28;255490;-67
2022/07/25 00:35:58;;;;;;;8.57;3.00;;;23.30;98.50;;;;;;5022179;28;211003;-68
2022/07/25 00:38:25;;;;;;;7.45;2.90;;;23.30;98.60;;;;;;5062248;28;255332;-68
2022/07/25 00:40:51;;;;;;;9.32;3.30;;;23.30;98.70;;;;;;5041914;28;209967;-67
2022/07/25 00:43:17;;;;;;;7.95;3.22;;;23.20;98.70;;;;;;5047111;28;276839;-67
2022/07/25 00:45:43;;;;;;;9.00;3.30;;;23.20;98.70;;;;;;5019181;28;209895;-67
2022/07/25 00:48:09;;;;;;;8.77;3.22;;;23.20;98.70;;;;;;5067078;28;20048;-67
2022/07/25 00:50:35;;;;;;;8.10;3.37;;;23.10;98.80;;;;;;5006569;28;227343;-66
2022/07/25 00:53:01;;;;;;;11.35;3.83;;;23.00;98.80;;;;;;5082701;28;20061;-67
2022/07/25 00:55:29;;;;;;;8.25;3.75;;;23.00;98.90;;;;;;5039507;28;277638;-66
2022/07/25 00:57:55;;;;;;;9.90;3.50;;;22.90;99.00;;;;;;5065934;28;207401;-67
2022/07/25 01:00:21;;;;;;;13.13;4.10;;;22.90;99.00;;;;;;5064782;28;256167;-67
2022/07/25 01:02:47;;;;;;;9.57;4.10;;;22.80;99.00;;;;;;5033863;28;210894;-67
2022/07/25 01:05:13;;;;;;;9.38;3.72;;;22.80;99.10;;;;;;5045148;28;272065;-67
2022/07/25 01:07:40;;;;;;;9.90;4.07;;;22.80;99.10;;;;;;5032155;28;209480;-67
2022/07/25 01:10:07;;;;;;;10.75;4.13;;;22.70;99.20;;;;;;5063132;28;263075;-67
2022/07/25 01:12:46;;;;;;;10.55;4.50;;;22.70;99.20;;;;;;5033503;28;210447;-66
2022/07/25 01:15:12;;;;;;;9.43;4.57;;;22.70;99.30;;;;;;5062986;28;274935;-67
2022/07/25 01:17:38;;;;;;;8.75;4.32;;;22.60;99.40;;;;;;5035614;28;209252;-66
2022/07/25 01:20:05;;;;;;;10.60;4.43;;;22.50;99.60;;;;;;5062886;28;268512;-66
2022/07/25 01:22:31;;;;;;;9.73;4.63;;;22.50;99.50;;;;;;5045271;28;209046;-66
2022/07/25 01:24:57;;;;;;;9.05;4.65;;;22.50;99.50;;;;;;5062141;28;251278;-66
2022/07/25 01:27:23;;;;;;;9.63;4.72;;;22.40;99.50;;;;;;5040134;28;212310;-66
2022/07/25 01:29:49;;;;;;;9.48;4.40;;;22.40;99.60;;;;;;5060567;28;269948;-66
2022/07/25 01:32:15;;;;;;;9.10;5.15;;;22.40;99.60;;;;;;5033340;28;214642;-67
2022/07/25 01:34:41;;;;;;;9.57;4.60;;;22.40;99.70;;;;;;5064235;28;277649;-67
2022/07/25 01:37:07;;;;;;;9.52;4.68;;;22.30;99.80;;;;;;5037534;28;211244;-66
2022/07/25 01:39:34;;;;;;;9.73;4.85;;;22.30;99.80;;;;;;5064664;28;273467;-66
2022/07/25 01:42:00;;;;;;;11.85;4.97;;;22.20;99.80;;;;;;5032307;28;164593;-66
2022/07/25 01:44:26;;;;;;;9.77;4.90;;;22.20;99.80;;;;;;5064332;28;271335;-67
2022/07/25 01:46:52;;;;;;;12.02;5.40;;;22.20;99.90;;;;;;5047915;28;215201;-67
2022/07/25 01:49:18;;;;;;;9.90;5.40;;;22.10;99.90;;;;;;5053809;28;253447;-66
2022/07/25 01:51:44;;;;;;;11.70;5.45;;;22.10;99.90;;;;;;5050565;28;208763;-66
2022/07/25 01:54:10;;;;;;;10.82;6.07;;;22.10;99.90;;;;;;5064537;28;255462;-67
2022/07/25 01:56:41;;;;;;;9.90;5.55;;;22.10;99.90;;;;;;5040448;28;212958;-67
2022/07/25 01:59:07;;;;;;;11.30;6.15;;;22.00;99.90;;;;;;5043949;28;44281;-67
2022/07/25 02:01:33;;;;;;;11.25;5.95;;;22.00;99.90;;;;;;5037127;28;221572;-67
2022/07/25 02:03:59;;;;;;;10.60;5.90;;;22.00;99.90;;;;;;5050067;28;264259;-67
2022/07/25 02:06:26;;;;;;;10.57;6.13;;;21.90;99.90;;;;;;5043233;28;208820;-67
2022/07/25 02:08:52;;;;;;;12.40;6.28;;;21.90;99.90;;;;;;5041880;28;112259;-67
2022/07/25 02:11:18;;;;;;;13.45;6.70;;;21.90;99.90;;;;;;5047480;28;213094;-67
2022/07/25 02:13:44;;;;;;;10.65;6.15;;;21.90;99.90;;;;;;5064690;28;258831;-67
2022/07/25 02:16:11;;;;;;;13.40;6.43;;;21.90;99.90;;;;;;5036460;28;211097;-67
2022/07/25 02:18:37;;;;;;;10.45;6.35;;;21.80;99.90;;;;;;5064264;28;267783;-66
2022/07/25 02:21:08;;;;;;;11.35;6.45;;;21.80;99.90;;;;;;5028497;28;205371;-66
2022/07/25 02:23:35;;;;;;;11.63;6.57;;;21.80;99.90;;;;;;5070948;28;255291;-66
2022/07/25 02:26:02;;;;;;;12.90;6.82;;;21.70;99.90;;;;;;5043475;28;208980;-67
2022/07/25 02:28:28;;;;;;;11.00;6.30;;;21.80;99.90;;;;;;5064358;28;253831;-67
2022/07/25 02:30:54;;;;;;;12.55;7.20;;;21.70;99.90;;;;;;5034153;28;101668;-67
2022/07/25 02:33:20;;;;;;;12.53;6.57;;;21.70;99.90;;;;;;5064313;28;256033;-66
2022/07/25 02:35:47;;;;;;;11.37;6.50;;;21.70;99.90;;;;;;5024412;28;211729;-67
2022/07/25 02:38:18;;;;;;;12.02;7.10;;;21.70;99.90;;;;;;5068879;28;20053;-67
2022/07/25 02:40:49;;;;;;;11.27;6.90;;;21.60;99.90;;;;;;5016745;28;212386;-66
2022/07/25 02:43:15;;;;;;;;;;;21.70;99.90;;;;;;5065713;28;263196;-67
2022/07/25 02:45:41;;;;;;;12.00;7.00;;;21.60;99.90;;;;;;5038080;28;216055;-67
2022/07/25 02:48:07;;;;;;;10.43;6.28;;;21.60;99.90;;;;;;5083641;28;20053;-67
2022/07/25 02:50:34;;;;;;;11.87;7.20;;;21.60;99.90;;;;;;5017883;28;259548;-65
2022/07/25 02:53:00;;;;;;;13.73;7.75;;;21.60;99.90;;;;;;5084387;28;20048;-67
2022/07/25 02:55:26;;;;;;;13.35;8.23;;;21.60;99.90;;;;;;5049460;28;267176;-66
2022/07/25 02:57:52;;;;;;;12.25;7.38;;;21.50;99.90;;;;;;5044129;28;127593;-66
2022/07/25 03:00:19;;;;;;;15.40;8.05;;;21.40;99.90;;;;;;5066444;28;253767;-67
2022/07/25 03:02:45;;;;;;;11.48;8.35;;;21.40;99.90;;;;;;5034331;28;209802;-67
2022/07/25 03:05:14;;;;;;;13.48;8.40;;;21.40;99.90;;;;;;5052860;28;265705;-67
2022/07/25 03:07:41;;;;;;;12.77;7.95;;;21.30;99.90;;;;;;5022781;28;207563;-67
2022/07/25 03:10:09;;;;;;;13.35;7.85;;;21.20;99.90;;;;;;5058127;28;99732;-67
2022/07/25 03:12:36;;;;;;;12.70;7.40;;;21.20;99.90;;;;;;5033676;28;210452;-67
2022/07/25 03:15:05;;;;;;;12.18;8.30;;;21.20;99.90;;;;;;5066569;28;259130;-68
2022/07/25 03:17:31;;;;;;;12.20;7.38;;;21.20;99.90;;;;;;5038300;28;212883;-67
2022/07/25 03:19:57;;;;;;;14.25;8.20;;;21.20;99.90;;;;;;5042358;28;191730;-67
2022/07/25 03:22:24;;;;;;;12.52;8.15;;;21.10;99.90;;;;;;5042645;28;210503;-67
2022/07/25 03:24:51;;;;;;;14.35;8.85;;;21.10;99.90;;;;;;5064827;28;276456;-67
2022/07/25 03:27:17;;;;;;;15.70;8.40;;;21.10;99.90;;;;;;5041356;28;210331;-67
2022/07/25 03:29:43;;;;;;;11.65;8.18;;;21.10;99.90;;;;;;5063122;28;254954;-67
2022/07/25 03:32:09;;;;;;;12.10;7.93;;;21.10;99.90;;;;;;5034403;28;220954;-67
2022/07/25 03:34:35;;;;;;;13.15;8.10;;;21.10;99.90;;;;;;5062414;28;258004;-67
2022/07/25 03:37:02;;;;;;;16.55;8.38;;;21.10;99.90;;;;;;5034840;28;210724;-67
2022/07/25 03:39:29;;;;;;;14.25;9.10;;;21.10;99.90;;;;;;5062113;28;257215;-67
2022/07/25 03:41:55;;;;;;;14.27;8.63;;;21.10;99.90;;;;;;5034778;28;211074;-67
2022/07/25 03:44:22;;;;;;;15.52;8.27;;;21.10;99.90;;;;;;5063461;28;261608;-67
2022/07/25 03:46:50;;;;;;;14.55;8.55;;;21.00;99.90;;;;;;5040353;28;209783;-67
2022/07/25 03:49:16;;;;;;;16.30;8.80;;;21.00;99.90;;;;;;5062413;28;266828;-68
2022/07/25 03:51:43;;;;;;;12.90;8.32;;;21.00;99.90;;;;;;5039376;28;210057;-67
2022/07/25 03:54:12;;;;;;;13.73;8.98;;;21.00;99.90;;;;;;5051482;28;253120;-66
2022/07/25 03:56:41;;;;;;;13.70;7.63;;;21.00;99.90;;;;;;5037215;28;210570;-66
2022/07/25 03:59:09;;;;;;;12.90;8.43;;;21.00;99.90;;;;;;5051065;28;251777;-66
2022/07/25 04:01:35;;;;;;;13.70;8.43;;;21.00;99.90;;;;;;5035185;28;210297;-67
2022/07/25 04:04:02;;;;;;;11.43;8.02;;;21.00;99.90;;;;;;5047527;28;257433;-67
2022/07/25 04:06:28;;;;;;;13.38;7.93;;;20.90;99.90;;;;;;5035109;28;208937;-67
2022/07/25 04:08:55;;;;;;;14.77;8.48;;;21.00;99.90;;;;;;5062199;28;257731;-67
2022/07/25 04:11:21;;;;;;;13.70;8.73;;;21.00;99.90;;;;;;5039623;28;209962;-67
2022/07/25 04:13:48;;;;;;;15.60;9.27;;;21.00;99.90;;;;;;5061673;28;277836;-66
2022/07/25 04:16:15;;;;;;;13.32;9.68;;;21.00;99.90;;;;;;5038162;28;212934;-66
2022/07/25 04:18:41;;;;;;;12.80;8.63;;;21.00;99.90;;;;;;5061715;28;264403;-66
2022/07/25 04:21:08;;;;;;;12.60;9.00;;;21.00;99.90;;;;;;5026518;28;205759;-66
2022/07/25 04:23:35;;;;;;;13.05;9.50;;;21.00;99.90;;;;;;5050974;28;256055;-67
2022/07/25 04:26:01;;;;;;;14.27;9.40;;;21.00;99.90;;;;;;5034915;28;212776;-67
2022/07/25 04:28:28;;;;;;;16.00;9.43;;;21.00;99.90;;;;;;5048410;28;280353;-67
2022/07/25 04:30:54;;;;;;;13.80;9.15;;;21.00;99.90;;;;;;5034066;28;209893;-66
2022/07/25 04:33:21;;;;;;;13.52;8.95;;;21.10;99.90;;;;;;5061837;28;258664;-66
2022/07/25 04:35:47;;;;;;;14.35;9.68;;;21.10;99.90;;;;;;5040232;28;209506;-66
2022/07/25 04:38:13;;;;;;;13.15;9.25;;;21.20;99.90;;;;;;5081775;28;20044;-66
2022/07/25 04:40:39;;;;;;;15.60;9.75;;;21.20;99.90;;;;;;5030242;28;217978;-68
2022/07/25 04:43:07;;;;;;;13.82;9.90;;;21.30;99.90;;;;;;5082619;28;20055;-67
2022/07/25 04:45:33;;;;;;;17.60;10.35;;;21.40;99.90;;;;;;5020475;28;268665;-66
2022/07/25 04:48:00;;;;;;;13.60;9.82;;;21.50;99.90;;;;;;5082648;28;20766;-66
2022/07/25 04:50:28;;;;;;;17.02;11.10;;;21.50;99.90;;;;;;5048080;28;271447;-66
2022/07/25 04:52:54;;;;;;;16.73;10.20;;;21.50;99.90;;;;;;5022174;28;210612;-66
2022/07/25 04:55:21;;;;;;;15.43;10.70;;;21.50;99.90;;;;;;5064233;28;275391;-67
2022/07/25 04:57:47;;;;;;;14.52;10.43;;;21.50;99.90;;;;;;5022680;28;207036;-67
2022/07/25 05:00:14;;;;;;;14.57;9.93;;;21.50;99.90;;;;;;5063193;28;273311;-67
2022/07/25 05:02:40;;;;;;;15.60;10.90;;;21.60;99.90;;;;;;5037116;28;213631;-66
2022/07/25 05:05:07;;;;;;;13.25;10.63;;;21.60;99.90;;;;;;5038962;28;164617;-67
2022/07/25 05:07:37;;;;;;;15.25;10.90;;;21.60;99.90;;;;;;5035704;28;211059;-67
2022/07/25 05:10:04;;;;;;;15.32;10.40;;;21.70;99.90;;;;;;5061469;28;308303;-66
2022/07/25 05:12:30;;;;;;;15.27;10.48;;;21.70;99.90;;;;;;5033123;28;214137;-67
2022/07/25 05:14:56;;;;;;;15.27;10.88;;;21.80;99.90;;;;;;5062158;28;245200;-67
2022/07/25 05:17:23;;;;;;;15.13;10.82;;;21.80;99.90;;;;;;5035058;28;216428;-68
2022/07/25 05:19:49;;;;;;;17.20;11.23;;;21.90;99.90;;;;;;5061935;28;252229;-67
2022/07/25 05:22:15;;;;;;;16.50;11.32;;;21.90;99.90;;;;;;5034910;28;212895;-68
2022/07/25 05:24:41;;;;;;;15.52;11.30;;;21.90;99.90;;;;;;5061410;28;255963;-68
2022/07/25 05:27:07;;;;;;;16.65;12.10;;;21.90;99.90;;;;;;5037954;28;215871;-67
2022/07/25 05:29:33;;;;;;;15.63;11.10;;;22.00;99.90;;;;;;5061154;28;45158;-67
2022/07/25 05:32:00;;;;;;;17.48;11.27;;;22.00;99.90;;;;;;5031535;28;214210;-67
2022/07/25 05:34:26;;;;;;;19.15;11.32;;;22.00;99.90;;;;;;5064349;28;246789;-68
2022/07/25 05:36:52;;;;;;;17.83;10.65;;;22.00;99.90;;;;;;5022435;28;212038;-68
2022/07/25 05:39:18;;;;;;;15.27;11.40;;;22.10;99.90;;;;;;5047306;28;195162;-68
2022/07/25 05:41:45;;;;;;;15.13;10.80;;;22.10;99.90;;;;;;5030955;28;221346;-67
2022/07/25 05:44:14;;;;;;;15.80;11.30;;;22.20;99.90;;;;;;5065556;28;260527;-67
2022/07/25 05:46:40;;;;;;;16.05;11.13;;;22.20;99.90;;;;;;5020502;28;210184;-66
2022/07/25 05:49:06;;;;;;;17.25;11.15;;;22.30;99.90;;;;;;5062284;28;258356;-68
2022/07/25 05:51:32;;;;;;;16.80;11.07;;;22.40;99.90;;;;;;5043030;28;212803;-67
2022/07/25 05:53:58;;;;;;;15.57;11.80;;;22.40;99.90;;;;;;5062913;28;269015;-69
2022/07/25 05:56:24;;;;;;;14.23;10.63;;;22.50;99.90;;;;;;5041338;28;218706;-67
2022/07/25 05:58:50;;;;;;;14.05;10.70;;;22.50;99.90;;;;;;5042820;28;42791;-67
2022/07/25 06:01:17;;;;;;;16.35;10.80;;;22.60;99.90;;;;;;5034212;28;225778;-68
2022/07/25 06:03:43;;;;;;;14.68;10.48;;;22.70;99.90;;;;;;5056271;28;269211;-66
2022/07/25 06:06:09;;;;;;;15.40;11.02;;;22.80;99.90;;;;;;5042117;28;206745;-68
2022/07/25 06:08:37;;;;;;;16.17;10.73;;;22.90;99.90;;;;;;5076700;28;254073;-67
2022/07/25 06:11:06;;;;;;;14.35;10.30;;;23.00;99.90;;;;;;5047742;28;220738;-67
2022/07/25 06:13:33;;;;;;;14.70;10.30;;;23.20;99.90;;;;;;5049096;28;253688;-67
2022/07/25 06:16:00;;;;;;;14.88;10.20;;;23.30;99.90;;;;;;5046493;28;227287;-67
2022/07/25 06:18:27;;;;;;;14.68;10.27;;;23.30;99.90;;;;;;5067777;28;217888;-67
2022/07/25 06:20:53;;;;;;;15.25;10.07;;;23.40;99.90;;;;;;5028287;28;221261;-66
2022/07/25 06:23:20;;;;;;;15.67;9.97;;;23.40;99.90;;;;;;5069550;28;241128;-67
2022/07/25 06:25:46;;;;;;;16.53;10.90;;;23.40;99.90;;;;;;5038228;28;225083;-67
2022/07/25 06:28:13;;;;;;;14.85;10.10;;;23.40;99.90;;;;;;5083968;28;20044;-67
2022/07/25 06:30:43;;;;;;;15.27;10.32;;;23.40;99.90;;;;;;5009434;28;208474;-67
2022/07/25 06:33:10;;;;;;;13.48;10.30;;;23.30;99.90;;;;;;5083316;28;20045;-67
2022/07/25 06:35:37;;;;;;;15.80;10.17;;;23.40;99.90;;;;;;5024185;28;213313;-67
2022/07/25 06:38:03;;;;;;;12.52;9.40;;;23.60;99.90;;;;;;5084379;28;20047;-67
2022/07/25 06:40:30;;;;;;;14.75;9.93;;;23.80;99.90;;;;;;5028133;28;254474;-67
2022/07/25 06:42:56;;;;;;;14.57;9.95;;;24.00;99.80;;;;;;5085371;28;20044;-67
2022/07/25 06:45:22;;;;;;;17.05;10.05;;;24.10;99.50;;;;;;5066131;28;265240;-68
2022/07/25 06:47:48;;;;;;;13.00;9.55;;;24.20;99.40;;;;;;5043365;28;207087;-68
2022/07/25 06:50:19;;;;;;;14.98;9.73;;;24.50;99.40;;;;;;5067151;28;253191;-68
2022/07/25 06:52:46;;;;;;;13.68;9.45;;;24.60;99.10;;;;;;5023163;28;207138;-68
2022/07/25 06:55:13;;;;;;;14.65;9.73;;;24.70;99.00;;;;;;5072356;28;214259;-67
2022/07/25 06:57:40;;;;;;;15.15;10.18;;;24.80;98.70;;;;;;5039251;28;211489;-67
2022/07/25 07:00:09;;;;;;;14.25;9.77;;;25.10;98.50;;;;;;5069308;28;257284;-68
2022/07/25 07:02:55;;;;;;;15.93;9.98;;;25.30;98.20;;;;;;5036008;28;223551;-67
2022/07/25 07:05:27;;;;;;;14.48;9.65;;;25.60;97.80;;;;;;5052480;28;272820;-68
2022/07/25 07:07:53;;;;;;;14.77;9.45;;;25.50;97.60;;;;;;5027548;28;213089;-67
2022/07/25 07:10:20;;;;;;;13.48;9.38;;;25.30;98.00;;;;;;5066880;28;265529;-67
2022/07/25 07:12:47;;;;;;;12.98;9.15;;;25.30;98.00;;;;;;5023760;28;212635;-67
2022/07/25 07:15:15;;;;;;;13.18;9.20;;;25.30;98.10;;;;;;5059550;28;50251;-69
2022/07/25 07:17:41;;;;;;;14.70;9.88;;;25.30;98.10;;;;;;5041486;28;215579;-67
2022/07/25 07:20:09;;;;;;;14.80;9.13;;;25.20;98.10;;;;;;5069082;28;173757;-67
2022/07/25 07:22:46;;;;;;;16.70;8.93;;;25.10;98.10;;;;;;5035056;28;213217;-68
2022/07/25 07:25:14;;;;;;;15.27;9.18;;;25.10;98.20;;;;;;5072149;28;145746;-68
2022/07/25 07:27:41;;;;;;;14.77;9.57;;;25.00;98.30;;;;;;5037183;28;213991;-68
2022/07/25 07:30:13;;;;;;;16.05;9.50;;;25.00;98.50;;;;;;5059868;28;76278;-67
2022/07/25 07:32:40;;;;;;;14.57;9.05;;;25.00;98.50;;;;;;5042040;28;213549;-67
2022/07/25 07:35:07;;;;;;;14.70;8.82;;;25.00;98.50;;;;;;5065453;28;261922;-67
2022/07/25 07:37:33;;;;;;;11.90;8.20;;;25.10;98.60;;;;;;5041662;28;217091;-68
2022/07/25 07:39:59;;;;;;;14.45;9.10;;;25.30;98.60;;;;;;5063972;28;260444;-67
2022/07/25 07:42:25;;;;;;;11.73;8.07;;;25.60;98.30;;;;;;5035727;28;213478;-69
2022/07/25 07:44:51;;;;;;;12.05;7.22;;;25.60;98.10;;;;;;5042682;28;108489;-68
2022/07/25 07:47:17;;;;;;;14.90;7.93;;;25.60;98.00;;;;;;5035828;28;210792;-67
2022/07/25 07:49:43;;;;;;;14.68;7.05;;;25.90;97.80;;;;;;5062510;28;268329;-68
2022/07/25 07:52:09;;;;;;;12.90;6.57;;;26.30;97.60;;;;;;5025638;28;205893;-67
2022/07/25 07:57:20;;;;;;;12.68;6.70;;;26.20;96.60;;;;;;5038041;28;218402;-67
2022/07/25 07:59:46;;;;;;;10.65;6.55;;;26.30;96.40;;;;;;5062535;28;265023;-68
2022/07/25 08:02:12;;;;;;;11.00;5.88;;;26.30;96.20;;;;;;5039228;28;214055;-68
2022/07/25 08:04:39;;;;;;;10.60;6.05;;;26.30;96.00;;;;;;5047336;28;270383;-68
2022/07/25 08:07:05;;;;;;;11.38;5.70;;;26.20;95.60;;;;;;5022835;28;212873;-68
2022/07/25 08:09:31;;;;;;;10.23;5.45;;;26.00;95.70;;;;;;5062041;28;264890;-67
2022/07/25 08:11:57;;;;;;;11.13;5.05;;;25.80;96.00;;;;;;5024030;28;208304;-67
2022/07/25 08:14:23;;;;;;;12.40;5.70;;;25.60;96.20;;;;;;5038898;28;131357;-67
2022/07/25 08:16:51;;;;;;;12.55;5.90;;;25.50;96.20;;;;;;5021191;28;210413;-67
2022/07/25 08:19:17;;;;;;;10.65;5.68;;;25.50;96.30;;;;;;5063432;28;249669;-67
2022/07/25 08:21:44;;;;;;;13.43;5.97;;;25.50;96.30;;;;;;5038997;28;211177;-67
2022/07/25 08:24:10;;;;;;;11.90;5.50;;;25.60;96.40;;;;;;5053918;28;188976;-68
2022/07/25 08:26:36;;;;;;;11.77;5.68;;;25.70;96.60;;;;;;5034650;28;209799;-67
2022/07/25 08:29:03;;;;;;;11.77;6.40;;;25.80;96.40;;;;;;5056485;28;104376;-67
2022/07/25 08:31:29;;;;;;;12.45;5.55;;;25.90;96.40;;;;;;5023567;28;217605;-67
2022/07/25 08:33:55;;;;;;;10.32;5.32;;;26.00;96.40;;;;;;5058227;28;42983;-67
2022/07/25 08:36:21;;;;;;;11.10;5.55;;;26.00;96.30;;;;;;5035500;28;203628;-68
2022/07/25 08:38:47;;;;;;;11.27;5.40;;;25.90;96.40;;;;;;5061709;28;271896;-67
2022/07/25 08:41:13;;;;;;;10.85;4.88;;;25.80;96.30;;;;;;5035627;28;213776;-67
2022/07/25 08:43:41;;;;;;;10.70;4.85;;;25.70;96.50;;;;;;5062308;28;268307;-67
2022/07/25 08:46:07;;;;;;;11.85;5.10;;;25.60;96.40;;;;;;5041092;28;211191;-68
2022/07/25 08:48:34;;;;;;;9.70;4.78;;;25.60;96.40;;;;;;5061676;28;261806;-68
2022/07/25 08:51:01;;;;;;;10.80;4.60;;;25.50;96.60;;;;;;5039388;28;237943;-67
2022/07/25 08:53:29;;;;;;;9.60;4.80;;;25.50;96.80;;;;;;5061776;28;254458;-67
2022/07/25 08:55:55;;;;;;;10.43;4.60;;;25.40;96.60;;;;;;5033330;28;213387;-67
2022/07/25 08:58:21;;;;;;;10.63;4.83;;;25.50;96.90;;;;;;5061946;28;259242;-68
2022/07/25 09:00:47;;;;;;;9.95;4.50;;;25.50;96.80;;;;;;5019220;28;211547;-67
2022/07/25 09:03:14;;;;;;;10.27;4.68;;;25.40;96.90;;;;;;5056643;28;252683;-67
2022/07/25 09:05:40;;;;;;;10.97;4.93;;;25.40;97.00;;;;;;5019250;28;209288;-68
2022/07/25 09:08:11;;;;;;;8.68;4.45;;;25.40;97.20;;;;;;5049552;28;20112;-68
2022/07/25 09:10:40;;;;;;;12.63;3.90;;;25.40;97.10;;;;;;5025849;28;210493;-67
2022/07/25 09:13:17;;;;;;;7.18;2.47;;;25.40;97.00;;;;;;5065964;28;20052;-67
2022/07/25 09:15:48;;;;;;;9.33;2.37;;;25.20;96.30;;;;;;5012873;28;226415;-67
2022/07/25 09:18:17;;;;;;;7.22;2.30;;;25.30;96.10;;;;;;5070391;28;270860;-66
2022/07/25 09:20:48;;;;;;;7.35;2.20;;;25.30;96.10;;;;;;5035558;28;216461;-68
2022/07/25 09:23:32;;;;;;;6.78;2.40;;;25.20;95.80;;;;;;5073566;28;255678;-67
2022/07/25 09:26:16;;;;;;;9.07;2.10;;;25.30;96.00;;;;;;5035168;28;219337;-67
2022/07/25 09:28:47;;;;;;;8.30;2.20;;;25.50;95.50;;;;;;5061202;28;274302;-67
2022/07/25 09:31:14;;;;;;;6.93;2.20;;;25.50;95.70;;;;;;5032176;28;211059;-67
2022/07/25 09:33:54;;;;;;;5.97;1.80;;;25.70;95.50;;;;;;5060653;28;270939;-67
2022/07/25 09:36:22;;;;;;;8.90;2.40;;;25.80;95.20;;;;;;5023101;28;217527;-67
2022/07/25 09:38:59;;;;;;;8.43;2.00;;;26.00;95.20;;;;;;5050083;28;313416;-68
2022/07/25 09:41:37;;;;;;;6.72;1.98;;;26.30;94.90;;;;;;5038384;28;210116;-67
2022/07/25 09:44:14;;;;;;;8.20;2.20;;;26.60;94.70;;;;;;5041312;28;46983;-68
2022/07/25 09:46:40;;;;;;;7.95;2.10;;;27.20;94.90;;;;;;5031995;28;235976;-68
2022/07/25 09:49:08;;;;;;;8.13;1.80;;;27.50;93.60;;;;;;5058693;28;20054;-69
2022/07/25 09:51:35;;;;;;;7.60;1.90;;;27.50;93.10;;;;;;5020263;28;214907;-69
2022/07/25 09:54:04;;;;;;;6.18;1.83;;;27.40;92.30;;;;;;5055868;28;80024;-69
2022/07/25 09:56:31;;;;;;;8.27;1.92;;;27.40;92.00;;;;;;5038455;28;208638;-68
2022/07/25 09:59:00;;;;;;;8.68;1.90;;;27.20;91.90;;;;;;5057966;28;141418;-69
2022/07/25 10:01:35;;;;;;;7.18;1.90;;;27.00;92.20;;;;;;5025647;28;210480;-69
2022/07/25 10:04:07;;;;;;;8.63;1.95;;;27.00;91.80;;;;;;5047209;28;92605;-68
2022/07/25 10:06:38;;;;;;;7.30;1.83;;;26.90;92.20;;;;;;5042456;28;209956;-68
2022/07/25 10:09:12;;;;;;;7.35;2.00;;;27.00;92.20;;;;;;5064492;28;265131;-68
2022/07/25 10:11:39;;;;;;;6.60;1.70;;;27.40;92.00;;;;;;5023775;28;205651;-68
2022/07/25 10:14:14;;;;;;;8.00;1.75;;;27.60;92.30;;;;;;5064201;28;259251;-68
2022/07/25 10:16:47;;;;;;;6.40;1.58;;;28.00;92.10;;;;;;5028779;28;206495;-68
2022/07/25 10:19:13;;;;;;;5.47;1.52;;;28.30;91.30;;;;;;5044382;28;45283;-69
2022/07/25 10:21:39;;;;;;;6.85;1.70;;;28.30;91.60;;;;;;5038070;28;209932;-69
2022/07/25 10:24:08;;;;;;;6.60;1.52;;;27.70;92.10;;;;;;5064327;28;259657;-69
2022/07/25 10:26:38;;;;;;;5.63;1.50;;;27.30;92.10;;;;;;5040526;28;219131;-66
2022/07/25 10:29:09;;;;;;;6.55;1.50;;;27.00;92.60;;;;;;5055920;28;188831;-67
2022/07/25 10:31:44;;;;;;;5.68;1.35;;;26.90;93.00;;;;;;5042025;28;213843;-68
2022/07/25 10:34:14;;;;;;;8.48;1.85;;;27.00;93.50;;;;;;5063862;28;261789;-68
2022/07/25 10:36:48;;;;;;;8.90;1.42;;;26.90;93.70;;;;;;5021324;28;213745;-68
2022/07/25 10:39:16;;;;;;;6.70;1.48;;;27.00;93.40;;;;;;5045144;28;41632;-68
2022/07/25 10:41:59;;;;;;;6.82;1.30;;;26.70;93.70;;;;;;5029003;28;216060;-68
2022/07/25 10:44:29;;;;;;;7.70;1.55;;;26.50;93.90;;;;;;5064333;28;266037;-68
2022/07/25 10:47:05;;;;;;;6.88;1.75;;;26.10;94.30;;;;;;5013935;28;209632;-68
2022/07/25 10:49:36;;;;;;;9.35;1.73;;;25.80;95.10;;;;;;5058449;28;100003;-68
2022/07/25 10:52:03;;;;;;;11.27;1.65;;;25.50;95.80;;;;;;5039420;28;211018;-68
2022/07/25 10:54:37;;;;;;;9.70;1.60;;;25.10;96.80;;;;;;5064345;28;257374;-68
2022/07/25 10:57:05;;;;;;;8.63;1.88;;;24.80;98.00;;;;;;5033878;28;206445;-67
2022/07/25 10:59:38;;;;;;;6.57;1.75;;;24.50;99.00;;;;;;5074928;28;20067;-68
2022/07/25 11:02:07;;;;;;;7.03;1.83;;;24.40;99.10;;;;;;5038594;28;206694;-69
2022/07/25 11:04:33;;;;;;;8.60;2.00;;;24.40;99.90;;;;;;5047129;28;253174;-68
2022/07/25 11:07:13;;;;;;;8.82;1.95;;;24.50;99.90;;;;;;5038073;28;227480;-68
2022/07/25 11:09:41;;;;;;;9.63;2.22;;;24.90;99.70;;;;;;5063516;28;266449;-67
2022/07/25 11:12:07;;;;;;;8.45;1.90;;;25.40;99.50;;;;;;5029550;28;207082;-68
2022/07/25 11:14:40;;;;;;;10.88;2.25;;;25.70;98.80;;;;;;5062551;28;266518;-68
2022/07/25 11:17:18;;;;;;;9.57;2.13;;;26.00;98.40;;;;;;5039747;28;209150;-68
2022/07/25 11:19:54;;;;;;;9.50;2.17;;;26.60;97.60;;;;;;5055262;28;177311;-68
2022/07/25 11:22:21;;;;;;;10.35;2.20;;;26.60;97.50;;;;;;5042079;28;210485;-67
2022/07/25 11:24:47;;;;;;;9.52;2.20;;;26.50;97.00;;;;;;5057764;28;396133;-68
2022/07/25 11:27:27;;;;;;;8.50;2.13;;;26.20;97.00;;;;;;5008887;28;207630;-68
2022/07/25 11:30:08;;;;;;;9.43;2.38;;;25.80;97.10;;;;;;5054244;28;195795;-69
2022/07/25 11:32:49;;;;;;;10.20;2.28;;;25.80;97.10;;;;;;5036755;28;209295;-68
2022/07/25 11:35:20;;;;;;;9.45;2.00;;;25.60;96.30;;;;;;5065313;28;282751;-67
2022/07/25 11:37:48;;;;;;;10.45;2.13;;;25.60;96.30;;;;;;5034637;28;212189;-68
2022/07/25 11:40:16;;;;;;;10.80;2.28;;;25.60;96.40;;;;;;5057668;28;83466;-68
2022/07/25 11:42:48;;;;;;;10.85;2.33;;;26.10;96.20;;;;;;5028953;28;139457;-68
2022/07/25 11:45:25;;;;;;;10.52;2.25;;;26.10;95.50;;;;;;5067027;28;255246;-67
2022/07/25 11:48:08;;;;;;;9.70;2.10;;;26.10;96.00;;;;;;5030884;28;203813;-67
2022/07/25 11:50:37;;;;;;;9.63;2.20;;;26.10;95.20;;;;;;5009379;28;217045;-68
2022/07/25 11:53:17;;;;;;;9.15;2.20;;;25.80;95.70;;;;;;5067513;28;20126;-68
2022/07/25 11:55:43;;;;;;;10.18;2.05;;;25.60;95.70;;;;;;5009010;28;212604;-69
2022/07/25 11:58:12;;;;;;;10.32;2.30;;;25.40;96.10;;;;;;5082889;28;20071;-68
2022/07/25 12:00:44;;;;;;;13.43;2.28;;;25.20;96.60;;;;;;5005493;28;215106;-69
2022/07/25 12:03:16;;;;;;;11.25;2.33;;;25.20;97.00;;;;;;5081735;28;20048;-67
2022/07/25 12:05:42;;;;;;;13.47;2.40;;;24.90;97.40;;;;;;4999492;28;210873;-68
2022/07/25 12:08:13;;;;;;;9.57;1.98;;;24.50;97.40;;;;;;5067251;28;20056;-69
2022/07/25 12:10:39;;;;;;;;;;;24.80;97.20;;;;;;4998083;28;209293;-69
2022/07/25 12:13:08;;;;;;;9.48;2.13;;;25.30;96.90;;;;;;5067026;28;20587;-69
2022/07/25 12:15:39;;;;;;;10.77;1.95;;;25.60;96.20;;;;;;5015762;28;255423;-68
2022/07/25 12:18:08;;;;;;;10.88;2.17;;;25.80;95.60;;;;;;5049790;28;20056;-69
2022/07/25 12:20:41;;;;;;;9.40;1.80;;;26.10;94.70;;;;;;5015300;28;257385;-69
2022/07/25 12:23:09;;;;;;;11.60;2.15;;;26.60;94.70;;;;;;5082089;28;20056;-69
2022/07/25 12:25:37;;;;;;;9.88;1.73;;;26.70;94.60;;;;;;5004012;28;211201;-69
2022/07/25 12:28:04;;;;;;;11.85;2.22;;;26.20;95.10;;;;;;5067770;28;20037;-69
2022/07/25 12:30:31;;;;;;;8.88;2.17;;;25.50;95.80;;;;;;5020957;28;276999;-68
2022/07/25 12:32:58;;;;;;;10.75;2.13;;;25.70;96.10;;;;;;5066885;28;20060;-69
2022/07/25 12:35:24;;;;;;;7.90;1.73;;;26.10;95.30;;;;;;5043458;28;214743;-70
2022/07/25 12:37:51;;;;;;;11.50;2.13;;;26.80;95.30;;;;;;5056201;28;117192;-68